sensor_id;sensor_type;location;lat;lon;timestamp;P1;durP1;ratioP1;P2;durP2;ratioP2
55140;SDS011;41035;44.280;19.870;2023-01-05T00:01:20;80.55;;;43.88;;
55140;SDS011;41035;44.280;19.870;2023-01-05T00:03:46;74.50;;;39.35;;
55140;SDS011;41035;44.280;19.870;2023-01-05T00:06:13;99.40;;;47.65;;
55140;SDS011;41035;44.280;19.870;2023-01-05T00:08:40;115.38;;;54.45;;
55140;SDS011;41035;44.280;19.870;2023-01-05T00:14:14;89.93;;;48.88;;
55140;SDS011;41035;44.280;19.870;2023-01-05T00:16:59;80.60;;;43.60;;
55140;SDS011;41035;44.280;19.870;2023-01-05T00:19:45;131.90;;;69.20;;
55140;SDS011;41035;44.280;19.870;2023-01-05T00:22:30;85.60;;;48.55;;
55140;SDS011;41035;44.280;19.870;2023-01-05T00:25:07;220.35;;;94.20;;
55140;SDS011;41035;44.280;19.870;2023-01-05T00:27:33;140.55;;;59.90;;
55140;SDS011;41035;44.280;19.870;2023-01-05T00:30:01;166.73;;;71.78;;
55140;SDS011;41035;44.280;19.870;2023-01-05T00:32:28;89.70;;;42.72;;
55140;SDS011;41035;44.280;19.870;2023-01-05T00:34:54;81.60;;;44.00;;
55140;SDS011;41035;44.280;19.870;2023-01-05T00:37:24;82.75;;;47.33;;
55140;SDS011;41035;44.280;19.870;2023-01-05T00:40:15;77.63;;;40.83;;
55140;SDS011;41035;44.280;19.870;2023-01-05T00:43:17;126.10;;;58.08;;
55140;SDS011;41035;44.280;19.870;2023-01-05T00:46:21;127.93;;;57.80;;
55140;SDS011;41035;44.280;19.870;2023-01-05T00:49:27;84.07;;;43.13;;
55140;SDS011;41035;44.280;19.870;2023-01-05T00:52:00;75.65;;;38.90;;
55140;SDS011;41035;44.280;19.870;2023-01-05T00:54:50;54.72;;;28.40;;
55140;SDS011;41035;44.280;19.870;2023-01-05T00:57:59;54.50;;;30.10;;
55140;SDS011;41035;44.280;19.870;2023-01-05T01:00:45;57.05;;;31.38;;
55140;SDS011;41035;44.280;19.870;2023-01-05T01:06:26;88.65;;;47.45;;
55140;SDS011;41035;44.280;19.870;2023-01-05T01:09:34;82.47;;;41.63;;
55140;SDS011;41035;44.280;19.870;2023-01-05T01:12:26;60.22;;;31.08;;
55140;SDS011;41035;44.280;19.870;2023-01-05T01:20:29;46.38;;;26.27;;
55140;SDS011;41035;44.280;19.870;2023-01-05T01:22:56;51.75;;;27.10;;
55140;SDS011;41035;44.280;19.870;2023-01-05T01:25:24;45.88;;;24.65;;
55140;SDS011;41035;44.280;19.870;2023-01-05T01:27:50;43.85;;;22.17;;
55140;SDS011;41035;44.280;19.870;2023-01-05T01:30:16;39.65;;;23.58;;
55140;SDS011;41035;44.280;19.870;2023-01-05T01:32:43;39.20;;;21.73;;
55140;SDS011;41035;44.280;19.870;2023-01-05T01:35:10;36.97;;;22.42;;
55140;SDS011;41035;44.280;19.870;2023-01-05T01:37:36;41.92;;;22.73;;
55140;SDS011;41035;44.280;19.870;2023-01-05T01:40:02;45.75;;;24.13;;
55140;SDS011;41035;44.280;19.870;2023-01-05T01:42:28;39.50;;;21.63;;
55140;SDS011;41035;44.280;19.870;2023-01-05T01:44:58;49.13;;;24.73;;
55140;SDS011;41035;44.280;19.870;2023-01-05T01:47:30;34.97;;;18.73;;
55140;SDS011;41035;44.280;19.870;2023-01-05T01:52:23;32.83;;;18.13;;
55140;SDS011;41035;44.280;19.870;2023-01-05T01:54:50;32.40;;;18.30;;
55140;SDS011;41035;44.280;19.870;2023-01-05T01:57:17;36.83;;;19.45;;
55140;SDS011;41035;44.280;19.870;2023-01-05T01:59:43;38.78;;;20.05;;
55140;SDS011;41035;44.280;19.870;2023-01-05T02:02:10;44.38;;;23.80;;
55140;SDS011;41035;44.280;19.870;2023-01-05T02:04:37;44.38;;;23.25;;
55140;SDS011;41035;44.280;19.870;2023-01-05T02:07:04;31.73;;;17.50;;
55140;SDS011;41035;44.280;19.870;2023-01-05T02:09:32;32.08;;;16.52;;
55140;SDS011;41035;44.280;19.870;2023-01-05T02:28:33;33.42;;;16.98;;
55140;SDS011;41035;44.280;19.870;2023-01-05T02:37:49;39.30;;;20.00;;
55140;SDS011;41035;44.280;19.870;2023-01-05T02:40:29;47.05;;;22.75;;
55140;SDS011;41035;44.280;19.870;2023-01-05T02:43:16;56.22;;;28.52;;
55140;SDS011;41035;44.280;19.870;2023-01-05T02:46:08;42.13;;;22.27;;
55140;SDS011;41035;44.280;19.870;2023-01-05T02:48:55;36.80;;;18.27;;
55140;SDS011;41035;44.280;19.870;2023-01-05T02:54:17;33.67;;;18.45;;
55140;SDS011;41035;44.280;19.870;2023-01-05T02:56:59;38.30;;;19.98;;
55140;SDS011;41035;44.280;19.870;2023-01-05T02:59:40;38.65;;;22.10;;
55140;SDS011;41035;44.280;19.870;2023-01-05T03:02:31;34.58;;;20.23;;
55140;SDS011;41035;44.280;19.870;2023-01-05T03:05:25;40.15;;;20.65;;
55140;SDS011;41035;44.280;19.870;2023-01-05T03:08:06;57.05;;;26.35;;
55140;SDS011;41035;44.280;19.870;2023-01-05T03:11:12;36.58;;;20.90;;
55140;SDS011;41035;44.280;19.870;2023-01-05T03:14:02;23.38;;;13.48;;
55140;SDS011;41035;44.280;19.870;2023-01-05T03:17:20;29.25;;;16.88;;
55140;SDS011;41035;44.280;19.870;2023-01-05T03:20:26;29.92;;;16.98;;
55140;SDS011;41035;44.280;19.870;2023-01-05T03:25:58;49.22;;;25.20;;
55140;SDS011;41035;44.280;19.870;2023-01-05T03:28:48;28.27;;;15.73;;
55140;SDS011;41035;44.280;19.870;2023-01-05T03:31:55;29.02;;;15.77;;
55140;SDS011;41035;44.280;19.870;2023-01-05T03:35:01;28.20;;;15.20;;
55140;SDS011;41035;44.280;19.870;2023-01-05T03:38:10;26.48;;;14.45;;
55140;SDS011;41035;44.280;19.870;2023-01-05T03:40:52;22.83;;;13.02;;
55140;SDS011;41035;44.280;19.870;2023-01-05T03:43:20;28.52;;;15.43;;
55140;SDS011;41035;44.280;19.870;2023-01-05T03:45:55;23.10;;;14.23;;
55140;SDS011;41035;44.280;19.870;2023-01-05T03:48:22;22.02;;;12.63;;
55140;SDS011;41035;44.280;19.870;2023-01-05T03:50:49;30.95;;;17.20;;
55140;SDS011;41035;44.280;19.870;2023-01-05T03:53:16;33.22;;;18.52;;
55140;SDS011;41035;44.280;19.870;2023-01-05T03:55:42;35.78;;;22.00;;
55140;SDS011;41035;44.280;19.870;2023-01-05T03:58:08;35.88;;;19.00;;
55140;SDS011;41035;44.280;19.870;2023-01-05T04:00:35;20.65;;;13.13;;
55140;SDS011;41035;44.280;19.870;2023-01-05T04:03:01;23.17;;;12.45;;
55140;SDS011;41035;44.280;19.870;2023-01-05T04:05:27;20.48;;;11.60;;
55140;SDS011;41035;44.280;19.870;2023-01-05T04:07:53;18.35;;;10.73;;
55140;SDS011;41035;44.280;19.870;2023-01-05T04:10:19;20.48;;;11.38;;
55140;SDS011;41035;44.280;19.870;2023-01-05T04:12:46;21.42;;;12.82;;
55140;SDS011;41035;44.280;19.870;2023-01-05T04:15:33;30.25;;;15.32;;
55140;SDS011;41035;44.280;19.870;2023-01-05T04:18:08;26.85;;;14.60;;
55140;SDS011;41035;44.280;19.870;2023-01-05T04:20:43;25.20;;;15.35;;
55140;SDS011;41035;44.280;19.870;2023-01-05T04:23:18;29.50;;;15.43;;
55140;SDS011;41035;44.280;19.870;2023-01-05T04:25:49;18.55;;;11.30;;
55140;SDS011;41035;44.280;19.870;2023-01-05T04:28:15;17.85;;;10.35;;
55140;SDS011;41035;44.280;19.870;2023-01-05T04:30:42;16.38;;;9.13;;
55140;SDS011;41035;44.280;19.870;2023-01-05T04:33:40;17.40;;;9.57;;
55140;SDS011;41035;44.280;19.870;2023-01-05T04:36:09;13.63;;;7.72;;
55140;SDS011;41035;44.280;19.870;2023-01-05T04:38:40;10.65;;;6.65;;
55140;SDS011;41035;44.280;19.870;2023-01-05T04:41:06;11.38;;;6.90;;
55140;SDS011;41035;44.280;19.870;2023-01-05T04:43:33;12.65;;;7.82;;
55140;SDS011;41035;44.280;19.870;2023-01-05T04:46:00;19.83;;;10.88;;
55140;SDS011;41035;44.280;19.870;2023-01-05T04:48:29;19.90;;;10.30;;
55140;SDS011;41035;44.280;19.870;2023-01-05T04:51:00;295.90;;;145.32;;
55140;SDS011;41035;44.280;19.870;2023-01-05T04:53:26;87.95;;;45.47;;
55140;SDS011;41035;44.280;19.870;2023-01-05T04:55:53;42.88;;;21.42;;
55140;SDS011;41035;44.280;19.870;2023-01-05T04:58:19;55.55;;;26.35;;
55140;SDS011;41035;44.280;19.870;2023-01-05T05:00:49;72.47;;;35.67;;
55140;SDS011;41035;44.280;19.870;2023-01-05T05:03:30;59.47;;;29.33;;
55140;SDS011;41035;44.280;19.870;2023-01-05T05:06:20;17.67;;;10.35;;
55140;SDS011;41035;44.280;19.870;2023-01-05T05:08:47;18.30;;;8.98;;
55140;SDS011;41035;44.280;19.870;2023-01-05T05:11:14;14.88;;;8.18;;
55140;SDS011;41035;44.280;19.870;2023-01-05T05:13:41;15.80;;;8.85;;
55140;SDS011;41035;44.280;19.870;2023-01-05T05:16:07;24.17;;;12.52;;
55140;SDS011;41035;44.280;19.870;2023-01-05T05:18:33;21.52;;;11.10;;
55140;SDS011;41035;44.280;19.870;2023-01-05T05:20:59;15.25;;;9.15;;
55140;SDS011;41035;44.280;19.870;2023-01-05T05:23:25;19.98;;;9.43;;
55140;SDS011;41035;44.280;19.870;2023-01-05T05:25:51;18.27;;;11.00;;
55140;SDS011;41035;44.280;19.870;2023-01-05T05:28:18;22.95;;;12.02;;
55140;SDS011;41035;44.280;19.870;2023-01-05T05:30:44;31.58;;;13.43;;
55140;SDS011;41035;44.280;19.870;2023-01-05T05:33:10;23.05;;;10.63;;
55140;SDS011;41035;44.280;19.870;2023-01-05T05:35:36;16.88;;;8.13;;
55140;SDS011;41035;44.280;19.870;2023-01-05T05:38:02;10.43;;;5.85;;
55140;SDS011;41035;44.280;19.870;2023-01-05T05:40:28;13.20;;;6.20;;
55140;SDS011;41035;44.280;19.870;2023-01-05T05:42:54;21.88;;;11.45;;
55140;SDS011;41035;44.280;19.870;2023-01-05T05:45:21;23.05;;;13.43;;
55140;SDS011;41035;44.280;19.870;2023-01-05T05:47:47;21.50;;;12.23;;
55140;SDS011;41035;44.280;19.870;2023-01-05T05:50:31;18.10;;;10.38;;
55140;SDS011;41035;44.280;19.870;2023-01-05T05:52:58;34.67;;;16.85;;
55140;SDS011;41035;44.280;19.870;2023-01-05T05:55:24;73.22;;;27.48;;
55140;SDS011;41035;44.280;19.870;2023-01-05T05:57:50;62.28;;;30.65;;
55140;SDS011;41035;44.280;19.870;2023-01-05T06:00:16;32.38;;;16.20;;
55140;SDS011;41035;44.280;19.870;2023-01-05T06:02:42;72.72;;;30.40;;
55140;SDS011;41035;44.280;19.870;2023-01-05T06:05:09;125.72;;;44.95;;
55140;SDS011;41035;44.280;19.870;2023-01-05T06:07:47;129.77;;;48.80;;
55140;SDS011;41035;44.280;19.870;2023-01-05T06:10:58;56.22;;;25.10;;
55140;SDS011;41035;44.280;19.870;2023-01-05T06:13:59;54.35;;;23.63;;
55140;SDS011;41035;44.280;19.870;2023-01-05T06:16:27;46.33;;;18.65;;
55140;SDS011;41035;44.280;19.870;2023-01-05T06:19:15;41.33;;;19.45;;
55140;SDS011;41035;44.280;19.870;2023-01-05T06:22:16;56.05;;;25.83;;
55140;SDS011;41035;44.280;19.870;2023-01-05T06:24:42;77.28;;;32.95;;
55140;SDS011;41035;44.280;19.870;2023-01-05T06:27:08;72.10;;;27.52;;
55140;SDS011;41035;44.280;19.870;2023-01-05T06:29:35;54.60;;;25.92;;
55140;SDS011;41035;44.280;19.870;2023-01-05T06:32:01;56.88;;;28.58;;
55140;SDS011;41035;44.280;19.870;2023-01-05T06:34:33;51.38;;;23.23;;
55140;SDS011;41035;44.280;19.870;2023-01-05T06:37:19;50.20;;;24.50;;
55140;SDS011;41035;44.280;19.870;2023-01-05T06:40:09;70.43;;;37.30;;
55140;SDS011;41035;44.280;19.870;2023-01-05T06:42:55;76.07;;;38.67;;
55140;SDS011;41035;44.280;19.870;2023-01-05T06:45:38;92.97;;;43.13;;
55140;SDS011;41035;44.280;19.870;2023-01-05T06:48:36;176.10;;;82.75;;
55140;SDS011;41035;44.280;19.870;2023-01-05T06:51:29;142.85;;;65.55;;
55140;SDS011;41035;44.280;19.870;2023-01-05T06:53:55;98.30;;;45.05;;
55140;SDS011;41035;44.280;19.870;2023-01-05T06:56:56;153.35;;;72.00;;
55140;SDS011;41035;44.280;19.870;2023-01-05T06:59:42;251.32;;;123.45;;
55140;SDS011;41035;44.280;19.870;2023-01-05T07:02:15;309.45;;;126.00;;
55140;SDS011;41035;44.280;19.870;2023-01-05T07:04:42;218.98;;;93.40;;
55140;SDS011;41035;44.280;19.870;2023-01-05T07:07:10;179.65;;;77.15;;
55140;SDS011;41035;44.280;19.870;2023-01-05T07:09:37;167.10;;;80.35;;
55140;SDS011;41035;44.280;19.870;2023-01-05T07:12:03;171.07;;;81.25;;
55140;SDS011;41035;44.280;19.870;2023-01-05T07:14:29;192.13;;;103.45;;
55140;SDS011;41035;44.280;19.870;2023-01-05T07:16:55;161.15;;;87.63;;
55140;SDS011;41035;44.280;19.870;2023-01-05T07:19:21;159.30;;;80.40;;
55140;SDS011;41035;44.280;19.870;2023-01-05T07:21:47;153.30;;;75.93;;
55140;SDS011;41035;44.280;19.870;2023-01-05T07:24:13;119.70;;;58.30;;
55140;SDS011;41035;44.280;19.870;2023-01-05T07:26:40;91.07;;;47.15;;
55140;SDS011;41035;44.280;19.870;2023-01-05T07:29:06;85.63;;;46.70;;
55140;SDS011;41035;44.280;19.870;2023-01-05T07:31:32;78.10;;;42.08;;
55140;SDS011;41035;44.280;19.870;2023-01-05T07:33:58;124.30;;;57.88;;
55140;SDS011;41035;44.280;19.870;2023-01-05T07:36:24;69.85;;;33.58;;
55140;SDS011;41035;44.280;19.870;2023-01-05T07:38:50;61.58;;;31.00;;
55140;SDS011;41035;44.280;19.870;2023-01-05T07:41:16;152.82;;;81.13;;
55140;SDS011;41035;44.280;19.870;2023-01-05T07:43:42;143.02;;;69.13;;
55140;SDS011;41035;44.280;19.870;2023-01-05T07:46:09;129.00;;;62.88;;
55140;SDS011;41035;44.280;19.870;2023-01-05T07:48:35;163.02;;;82.82;;
55140;SDS011;41035;44.280;19.870;2023-01-05T07:51:02;200.30;;;105.70;;
55140;SDS011;41035;44.280;19.870;2023-01-05T07:53:31;159.48;;;77.90;;
55140;SDS011;41035;44.280;19.870;2023-01-05T07:55:59;175.60;;;92.63;;
55140;SDS011;41035;44.280;19.870;2023-01-05T07:58:26;140.30;;;81.10;;
55140;SDS011;41035;44.280;19.870;2023-01-05T08:00:52;127.60;;;70.72;;
55140;SDS011;41035;44.280;19.870;2023-01-05T08:03:18;122.20;;;63.47;;
55140;SDS011;41035;44.280;19.870;2023-01-05T08:05:44;195.27;;;100.60;;
55140;SDS011;41035;44.280;19.870;2023-01-05T08:08:11;125.28;;;68.78;;
55140;SDS011;41035;44.280;19.870;2023-01-05T08:10:38;109.28;;;60.10;;
55140;SDS011;41035;44.280;19.870;2023-01-05T08:13:04;96.30;;;52.88;;
55140;SDS011;41035;44.280;19.870;2023-01-05T08:15:49;84.88;;;50.15;;
55140;SDS011;41035;44.280;19.870;2023-01-05T08:18:16;87.78;;;49.70;;
55140;SDS011;41035;44.280;19.870;2023-01-05T08:20:42;89.20;;;48.20;;
55140;SDS011;41035;44.280;19.870;2023-01-05T08:23:08;84.72;;;45.55;;
55140;SDS011;41035;44.280;19.870;2023-01-05T08:25:34;64.20;;;35.30;;
55140;SDS011;41035;44.280;19.870;2023-01-05T08:28:00;55.50;;;29.35;;
55140;SDS011;41035;44.280;19.870;2023-01-05T08:30:26;48.90;;;27.02;;
55140;SDS011;41035;44.280;19.870;2023-01-05T08:32:52;49.05;;;24.77;;
55140;SDS011;41035;44.280;19.870;2023-01-05T08:35:18;48.00;;;26.17;;
55140;SDS011;41035;44.280;19.870;2023-01-05T08:37:44;46.13;;;23.63;;
55140;SDS011;41035;44.280;19.870;2023-01-05T08:40:10;43.42;;;20.77;;
55140;SDS011;41035;44.280;19.870;2023-01-05T08:42:37;278.08;;;110.43;;
55140;SDS011;41035;44.280;19.870;2023-01-05T08:45:03;116.45;;;57.65;;
55140;SDS011;41035;44.280;19.870;2023-01-05T08:47:29;88.50;;;43.38;;
55140;SDS011;41035;44.280;19.870;2023-01-05T08:49:55;49.53;;;25.88;;
55140;SDS011;41035;44.280;19.870;2023-01-05T08:52:21;109.70;;;46.63;;
55140;SDS011;41035;44.280;19.870;2023-01-05T08:54:48;72.93;;;32.65;;
55140;SDS011;41035;44.280;19.870;2023-01-05T08:57:14;136.40;;;57.30;;
55140;SDS011;41035;44.280;19.870;2023-01-05T08:59:40;165.50;;;69.25;;
55140;SDS011;41035;44.280;19.870;2023-01-05T09:02:10;198.18;;;84.60;;
55140;SDS011;41035;44.280;19.870;2023-01-05T09:04:36;116.85;;;52.40;;
55140;SDS011;41035;44.280;19.870;2023-01-05T09:07:02;146.80;;;70.65;;
55140;SDS011;41035;44.280;19.870;2023-01-05T09:09:28;172.68;;;79.47;;
55140;SDS011;41035;44.280;19.870;2023-01-05T09:11:55;113.05;;;57.70;;
55140;SDS011;41035;44.280;19.870;2023-01-05T09:14:21;97.00;;;48.92;;
55140;SDS011;41035;44.280;19.870;2023-01-05T09:16:47;104.70;;;51.83;;
55140;SDS011;41035;44.280;19.870;2023-01-05T09:19:13;132.55;;;66.55;;
55140;SDS011;41035;44.280;19.870;2023-01-05T09:21:39;46.15;;;24.80;;
55140;SDS011;41035;44.280;19.870;2023-01-05T09:24:05;137.82;;;70.35;;
55140;SDS011;41035;44.280;19.870;2023-01-05T09:26:31;257.05;;;139.10;;
55140;SDS011;41035;44.280;19.870;2023-01-05T09:28:57;298.02;;;160.48;;
55140;SDS011;41035;44.280;19.870;2023-01-05T09:31:24;129.23;;;67.82;;
55140;SDS011;41035;44.280;19.870;2023-01-05T09:33:50;109.53;;;52.80;;
55140;SDS011;41035;44.280;19.870;2023-01-05T09:36:17;133.45;;;63.38;;
55140;SDS011;41035;44.280;19.870;2023-01-05T09:38:47;224.73;;;114.57;;
55140;SDS011;41035;44.280;19.870;2023-01-05T09:43:43;298.58;;;172.30;;
55140;SDS011;41035;44.280;19.870;2023-01-05T09:46:13;238.85;;;135.50;;
55140;SDS011;41035;44.280;19.870;2023-01-05T09:48:41;193.43;;;112.30;;
55140;SDS011;41035;44.280;19.870;2023-01-05T09:51:09;269.23;;;150.30;;
55140;SDS011;41035;44.280;19.870;2023-01-05T09:53:35;247.38;;;141.80;;
55140;SDS011;41035;44.280;19.870;2023-01-05T09:56:02;210.65;;;119.15;;
55140;SDS011;41035;44.280;19.870;2023-01-05T09:58:30;225.90;;;125.25;;
55140;SDS011;41035;44.280;19.870;2023-01-05T10:01:06;253.68;;;139.27;;
55140;SDS011;41035;44.280;19.870;2023-01-05T10:03:39;373.13;;;215.95;;
55140;SDS011;41035;44.280;19.870;2023-01-05T10:06:10;369.20;;;217.52;;
55140;SDS011;41035;44.280;19.870;2023-01-05T10:08:38;356.17;;;214.63;;
55140;SDS011;41035;44.280;19.870;2023-01-05T10:11:28;375.23;;;223.57;;
55140;SDS011;41035;44.280;19.870;2023-01-05T10:14:22;389.15;;;228.00;;
55140;SDS011;41035;44.280;19.870;2023-01-05T10:16:49;369.70;;;224.70;;
55140;SDS011;41035;44.280;19.870;2023-01-05T10:19:15;366.45;;;219.88;;
55140;SDS011;41035;44.280;19.870;2023-01-05T10:24:47;438.77;;;252.27;;
55140;SDS011;41035;44.280;19.870;2023-01-05T10:27:19;372.48;;;212.98;;
55140;SDS011;41035;44.280;19.870;2023-01-05T10:29:47;352.75;;;201.80;;
55140;SDS011;41035;44.280;19.870;2023-01-05T10:34:45;345.85;;;190.85;;
55140;SDS011;41035;44.280;19.870;2023-01-05T10:37:36;296.25;;;167.18;;
55140;SDS011;41035;44.280;19.870;2023-01-05T10:42:43;313.27;;;170.90;;
55140;SDS011;41035;44.280;19.870;2023-01-05T10:45:12;307.35;;;173.93;;
55140;SDS011;41035;44.280;19.870;2023-01-05T10:47:39;365.48;;;208.32;;
55140;SDS011;41035;44.280;19.870;2023-01-05T10:52:51;308.77;;;179.65;;
55140;SDS011;41035;44.280;19.870;2023-01-05T10:55:18;325.05;;;185.27;;
55140;SDS011;41035;44.280;19.870;2023-01-05T10:57:45;275.65;;;152.77;;
55140;SDS011;41035;44.280;19.870;2023-01-05T11:00:18;254.93;;;143.02;;
55140;SDS011;41035;44.280;19.870;2023-01-05T11:07:47;230.27;;;126.25;;
55140;SDS011;41035;44.280;19.870;2023-01-05T11:10:20;230.95;;;111.70;;
55140;SDS011;41035;44.280;19.870;2023-01-05T11:12:51;222.48;;;118.93;;
55140;SDS011;41035;44.280;19.870;2023-01-05T11:15:18;236.15;;;130.00;;
55140;SDS011;41035;44.280;19.870;2023-01-05T11:17:45;246.10;;;137.75;;
55140;SDS011;41035;44.280;19.870;2023-01-05T11:20:14;252.75;;;141.35;;
55140;SDS011;41035;44.280;19.870;2023-01-05T11:22:40;233.68;;;130.63;;
55140;SDS011;41035;44.280;19.870;2023-01-05T11:30:34;236.93;;;124.47;;
55140;SDS011;41035;44.280;19.870;2023-01-05T11:33:01;199.82;;;111.43;;
55140;SDS011;41035;44.280;19.870;2023-01-05T11:35:31;276.05;;;145.93;;
55140;SDS011;41035;44.280;19.870;2023-01-05T11:37:58;204.85;;;114.68;;
55140;SDS011;41035;44.280;19.870;2023-01-05T11:40:31;153.23;;;85.20;;
55140;SDS011;41035;44.280;19.870;2023-01-05T11:42:58;161.07;;;83.85;;
55140;SDS011;41035;44.280;19.870;2023-01-05T11:45:25;190.25;;;105.65;;
55140;SDS011;41035;44.280;19.870;2023-01-05T11:47:54;181.32;;;106.40;;
55140;SDS011;41035;44.280;19.870;2023-01-05T11:50:27;180.18;;;104.50;;
55140;SDS011;41035;44.280;19.870;2023-01-05T11:52:56;213.48;;;121.95;;
55140;SDS011;41035;44.280;19.870;2023-01-05T11:55:30;188.25;;;104.75;;
55140;SDS011;41035;44.280;19.870;2023-01-05T12:00:45;197.50;;;116.38;;
55140;SDS011;41035;44.280;19.870;2023-01-05T12:05:58;159.88;;;92.03;;
55140;SDS011;41035;44.280;19.870;2023-01-05T12:08:32;157.95;;;93.45;;
55140;SDS011;41035;44.280;19.870;2023-01-05T12:11:11;150.73;;;90.63;;
55140;SDS011;41035;44.280;19.870;2023-01-05T12:13:57;169.10;;;88.18;;
55140;SDS011;41035;44.280;19.870;2023-01-05T12:16:48;156.60;;;88.35;;
55140;SDS011;41035;44.280;19.870;2023-01-05T12:37:09;139.90;;;84.20;;
55140;SDS011;41035;44.280;19.870;2023-01-05T12:49:34;149.20;;;82.93;;
55140;SDS011;41035;44.280;19.870;2023-01-05T12:52:07;160.10;;;81.18;;
55140;SDS011;41035;44.280;19.870;2023-01-05T12:57:40;177.55;;;93.90;;
55140;SDS011;41035;44.280;19.870;2023-01-05T13:00:10;252.10;;;134.23;;
55140;SDS011;41035;44.280;19.870;2023-01-05T13:02:38;169.37;;;94.80;;
55140;SDS011;41035;44.280;19.870;2023-01-05T13:10:21;104.38;;;56.25;;
55140;SDS011;41035;44.280;19.870;2023-01-05T13:12:53;144.75;;;78.57;;
55140;SDS011;41035;44.280;19.870;2023-01-05T13:15:21;105.18;;;59.17;;
55140;SDS011;41035;44.280;19.870;2023-01-05T13:17:49;92.22;;;50.22;;
55140;SDS011;41035;44.280;19.870;2023-01-05T13:20:25;112.13;;;59.67;;
55140;SDS011;41035;44.280;19.870;2023-01-05T13:22:53;133.95;;;75.78;;
55140;SDS011;41035;44.280;19.870;2023-01-05T13:25:21;156.98;;;93.85;;
55140;SDS011;41035;44.280;19.870;2023-01-05T13:27:48;135.07;;;82.95;;
55140;SDS011;41035;44.280;19.870;2023-01-05T13:30:18;128.05;;;75.22;;
55140;SDS011;41035;44.280;19.870;2023-01-05T13:32:55;129.13;;;74.97;;
55140;SDS011;41035;44.280;19.870;2023-01-05T13:38:05;86.40;;;51.65;;
55140;SDS011;41035;44.280;19.870;2023-01-05T13:40:38;84.50;;;49.75;;
55140;SDS011;41035;44.280;19.870;2023-01-05T13:43:18;86.78;;;49.97;;
55140;SDS011;41035;44.280;19.870;2023-01-05T13:53:43;191.48;;;112.88;;
55140;SDS011;41035;44.280;19.870;2023-01-05T13:56:16;163.35;;;97.65;;
55140;SDS011;41035;44.280;19.870;2023-01-05T13:58:51;195.30;;;122.35;;
55140;SDS011;41035;44.280;19.870;2023-01-05T14:01:32;151.07;;;90.57;;
55140;SDS011;41035;44.280;19.870;2023-01-05T14:03:59;128.60;;;72.90;;
55140;SDS011;41035;44.280;19.870;2023-01-05T14:06:26;160.70;;;93.10;;
55140;SDS011;41035;44.280;19.870;2023-01-05T14:11:23;179.63;;;102.88;;
55140;SDS011;41035;44.280;19.870;2023-01-05T14:19:13;151.68;;;85.20;;
55140;SDS011;41035;44.280;19.870;2023-01-05T14:24:31;94.95;;;53.20;;
55140;SDS011;41035;44.280;19.870;2023-01-05T14:27:11;93.47;;;53.42;;
55140;SDS011;41035;44.280;19.870;2023-01-05T14:32:21;124.78;;;71.68;;
55140;SDS011;41035;44.280;19.870;2023-01-05T14:35:27;153.82;;;85.18;;
55140;SDS011;41035;44.280;19.870;2023-01-05T14:40:20;130.23;;;71.63;;
55140;SDS011;41035;44.280;19.870;2023-01-05T14:42:47;74.53;;;41.50;;
55140;SDS011;41035;44.280;19.870;2023-01-05T14:45:19;84.43;;;41.33;;
55140;SDS011;41035;44.280;19.870;2023-01-05T14:47:49;104.75;;;54.65;;
55140;SDS011;41035;44.280;19.870;2023-01-05T14:52:57;88.68;;;47.35;;
55140;SDS011;41035;44.280;19.870;2023-01-05T14:55:27;158.27;;;78.65;;
55140;SDS011;41035;44.280;19.870;2023-01-05T14:57:55;162.23;;;86.85;;
55140;SDS011;41035;44.280;19.870;2023-01-05T15:05:36;180.85;;;108.13;;
55140;SDS011;41035;44.280;19.870;2023-01-05T15:11:27;165.70;;;96.85;;
55140;SDS011;41035;44.280;19.870;2023-01-05T15:24:55;337.20;;;180.57;;
55140;SDS011;41035;44.280;19.870;2023-01-05T15:32:52;206.32;;;122.45;;
55140;SDS011;41035;44.280;19.870;2023-01-05T15:35:20;188.57;;;105.47;;
55140;SDS011;41035;44.280;19.870;2023-01-05T15:37:46;215.32;;;125.03;;
55140;SDS011;41035;44.280;19.870;2023-01-05T15:42:48;261.63;;;146.50;;
55140;SDS011;41035;44.280;19.870;2023-01-05T15:45:19;289.88;;;174.73;;
55140;SDS011;41035;44.280;19.870;2023-01-05T15:47:46;289.13;;;163.25;;
55140;SDS011;41035;44.280;19.870;2023-01-05T15:50:20;241.27;;;131.93;;
55140;SDS011;41035;44.280;19.870;2023-01-05T15:52:53;215.02;;;121.45;;
55140;SDS011;41035;44.280;19.870;2023-01-05T15:55:21;222.63;;;130.43;;
55140;SDS011;41035;44.280;19.870;2023-01-05T15:58:00;229.63;;;137.52;;
55140;SDS011;41035;44.280;19.870;2023-01-05T16:00:32;191.43;;;117.65;;
55140;SDS011;41035;44.280;19.870;2023-01-05T16:02:59;240.98;;;147.32;;
55140;SDS011;41035;44.280;19.870;2023-01-05T16:05:26;409.80;;;237.40;;
55140;SDS011;41035;44.280;19.870;2023-01-05T16:08:00;303.38;;;170.18;;
55140;SDS011;41035;44.280;19.870;2023-01-05T16:15:41;161.65;;;90.85;;
55140;SDS011;41035;44.280;19.870;2023-01-05T16:18:09;285.65;;;161.63;;
55140;SDS011;41035;44.280;19.870;2023-01-05T16:20:38;444.75;;;231.88;;
55140;SDS011;41035;44.280;19.870;2023-01-05T16:23:09;360.30;;;204.35;;
55140;SDS011;41035;44.280;19.870;2023-01-05T16:25:47;358.52;;;210.40;;
55140;SDS011;41035;44.280;19.870;2023-01-05T16:28:15;587.70;;;336.80;;
55140;SDS011;41035;44.280;19.870;2023-01-05T16:30:42;462.75;;;267.98;;
55140;SDS011;41035;44.280;19.870;2023-01-05T16:35:40;220.63;;;125.13;;
55140;SDS011;41035;44.280;19.870;2023-01-05T16:43:02;310.10;;;175.25;;
55140;SDS011;41035;44.280;19.870;2023-01-05T16:45:32;305.30;;;172.52;;
55140;SDS011;41035;44.280;19.870;2023-01-05T16:47:59;241.57;;;138.93;;
55140;SDS011;41035;44.280;19.870;2023-01-05T16:52:56;357.13;;;179.30;;
55140;SDS011;41035;44.280;19.870;2023-01-05T16:55:27;406.20;;;213.70;;
55140;SDS011;41035;44.280;19.870;2023-01-05T16:57:54;265.23;;;145.45;;
55140;SDS011;41035;44.280;19.870;2023-01-05T17:00:31;378.30;;;165.23;;
55140;SDS011;41035;44.280;19.870;2023-01-05T17:02:58;460.35;;;185.95;;
55140;SDS011;41035;44.280;19.870;2023-01-05T17:05:26;255.35;;;135.23;;
55140;SDS011;41035;44.280;19.870;2023-01-05T17:10:42;241.45;;;133.48;;
55140;SDS011;41035;44.280;19.870;2023-01-05T17:13:12;289.30;;;155.43;;
55140;SDS011;41035;44.280;19.870;2023-01-05T17:15:43;346.40;;;184.00;;
55140;SDS011;41035;44.280;19.870;2023-01-05T17:18:13;313.92;;;165.63;;
55140;SDS011;41035;44.280;19.870;2023-01-05T17:20:39;189.32;;;105.47;;
55140;SDS011;41035;44.280;19.870;2023-01-05T17:23:07;147.07;;;82.25;;
55140;SDS011;41035;44.280;19.870;2023-01-05T17:25:35;160.80;;;92.47;;
55140;SDS011;41035;44.280;19.870;2023-01-05T17:28:01;183.23;;;103.57;;
55140;SDS011;41035;44.280;19.870;2023-01-05T17:30:27;144.85;;;83.07;;